sensor_id;sensor_type;location;lat;lon;timestamp;pressure;altitude;pressure_sealevel;temperature;humidity
6680;BME280;3376;42.664;23.346;2022-12-18T00:00:05;95255.28;;;7.64;100.00
6680;BME280;3376;42.664;23.346;2022-12-18T00:02:32;95255.53;;;7.61;100.00
6680;BME280;3376;42.664;23.346;2022-12-18T00:04:58;95258.31;;;7.50;100.00
6680;BME280;3376;42.664;23.346;2022-12-18T00:07:25;95256.25;;;7.44;100.00
6680;BME280;3376;42.664;23.346;2022-12-18T00:09:53;95241.38;;;7.38;100.00
6680;BME280;3376;42.664;23.346;2022-12-18T00:12:20;95271.72;;;7.44;100.00
6680;BME280;3376;42.664;23.346;2022-12-18T00:14:47;95267.41;;;7.35;100.00
6680;BME280;3376;42.664;23.346;2022-12-18T00:17:13;95276.38;;;7.31;100.00
6680;BME280;3376;42.664;23.346;2022-12-18T00:19:40;95275.81;;;7.37;100.00
6680;BME280;3376;42.664;23.346;2022-12-18T00:22:07;95281.53;;;7.31;100.00
6680;BME280;3376;42.664;23.346;2022-12-18T00:24:34;95285.72;;;7.32;100.00
6680;BME280;3376;42.664;23.346;2022-12-18T00:27:02;95273.78;;;7.31;100.00
6680;BME280;3376;42.664;23.346;2022-12-18T00:29:29;95287.47;;;7.22;100.00
6680;BME280;3376;42.664;23.346;2022-12-18T00:31:55;95291.41;;;7.16;100.00
6680;BME280;3376;42.664;23.346;2022-12-18T00:34:22;95295.06;;;7.24;100.00
6680;BME280;3376;42.664;23.346;2022-12-18T00:36:49;95298.06;;;7.19;100.00
6680;BME280;3376;42.664;23.346;2022-12-18T00:39:15;95283.13;;;7.13;100.00
6680;BME280;3376;42.664;23.346;2022-12-18T00:41:42;95302.13;;;7.12;100.00
6680;BME280;3376;42.664;23.346;2022-12-18T00:44:28;95282.22;;;7.14;100.00
6680;BME280;3376;42.664;23.346;2022-12-18T00:46:54;95305.53;;;7.12;100.00
6680;BME280;3376;42.664;23.346;2022-12-18T00:49:21;95290.34;;;7.09;100.00
6680;BME280;3376;42.664;23.346;2022-12-18T00:51:48;95302.13;;;7.12;100.00
6680;BME280;3376;42.664;23.346;2022-12-18T00:54:15;95298.88;;;7.00;100.00
6680;BME280;3376;42.664;23.346;2022-12-18T00:56:43;95316.38;;;7.06;100.00
6680;BME280;3376;42.664;23.346;2022-12-18T00:59:09;95313.00;;;7.06;100.00
6680;BME280;3376;42.664;23.346;2022-12-18T01:01:37;95317.19;;;7.07;100.00
6680;BME280;3376;42.664;23.346;2022-12-18T01:04:04;95304.31;;;6.97;100.00
6680;BME280;3376;42.664;23.346;2022-12-18T01:06:31;95312.31;;;7.04;100.00
6680;BME280;3376;42.664;23.346;2022-12-18T01:08:58;95320.19;;;7.02;100.00
6680;BME280;3376;42.664;23.346;2022-12-18T01:11:24;95326.00;;;6.95;100.00
6680;BME280;3376;42.664;23.346;2022-12-18T01:13:52;95325.72;;;6.98;100.00
6680;BME280;3376;42.664;23.346;2022-12-18T01:16:19;95326.94;;;6.94;100.00
6680;BME280;3376;42.664;23.346;2022-12-18T01:18:47;95326.66;;;6.97;100.00
6680;BME280;3376;42.664;23.346;2022-12-18T01:21:15;95298.69;;;6.64;100.00
6680;BME280;3376;42.664;23.346;2022-12-18T01:23:45;95330.31;;;6.85;100.00
6680;BME280;3376;42.664;23.346;2022-12-18T01:26:14;95343.84;;;6.68;100.00
6680;BME280;3376;42.664;23.346;2022-12-18T01:28:41;95340.66;;;6.55;100.00
6680;BME280;3376;42.664;23.346;2022-12-18T01:31:14;95339.25;;;6.41;100.00
6680;BME280;3376;42.664;23.346;2022-12-18T01:33:42;95346.06;;;6.52;100.00
6680;BME280;3376;42.664;23.346;2022-12-18T01:36:14;95331.25;;;6.35;100.00
6680;BME280;3376;42.664;23.346;2022-12-18T01:38:41;95352.94;;;6.42;100.00
6680;BME280;3376;42.664;23.346;2022-12-18T01:41:08;95331.53;;;6.32;100.00
6680;BME280;3376;42.664;23.346;2022-12-18T01:43:52;95306.41;;;6.15;100.00
6680;BME280;3376;42.664;23.346;2022-12-18T01:46:21;95343.69;;;6.30;100.00
6680;BME280;3376;42.664;23.346;2022-12-18T01:48:51;95359.97;;;6.30;100.00
6680;BME280;3376;42.664;23.346;2022-12-18T01:51:19;95360.31;;;6.26;100.00
6680;BME280;3376;42.664;23.346;2022-12-18T01:53:48;95351.53;;;6.19;100.00
6680;BME280;3376;42.664;23.346;2022-12-18T01:56:17;95354.84;;;6.10;100.00
6680;BME280;3376;42.664;23.346;2022-12-18T01:58:53;95353.91;;;6.11;100.00
6680;BME280;3376;42.664;23.346;2022-12-18T02:01:22;95357.84;;;6.15;100.00
6680;BME280;3376;42.664;23.346;2022-12-18T02:03:50;95355.53;;;6.12;100.00
6680;BME280;3376;42.664;23.346;2022-12-18T02:06:23;95358.00;;;6.13;100.00
6680;BME280;3376;42.664;23.346;2022-12-18T02:09:05;95361.75;;;6.09;100.00
6680;BME280;3376;42.664;23.346;2022-12-18T02:11:40;95356.72;;;6.08;100.00
6680;BME280;3376;42.664;23.346;2022-12-18T02:14:17;95367.75;;;6.19;100.00
6680;BME280;3376;42.664;23.346;2022-12-18T02:16:49;95376.56;;;6.17;100.00
6680;BME280;3376;42.664;23.346;2022-12-18T02:19:34;95365.91;;;6.01;100.00
6680;BME280;3376;42.664;23.346;2022-12-18T02:22:20;95375.44;;;6.10;100.00
6680;BME280;3376;42.664;23.346;2022-12-18T02:24:58;95363.75;;;6.06;100.00
6680;BME280;3376;42.664;23.346;2022-12-18T02:27:29;95363.69;;;6.17;100.00
6680;BME280;3376;42.664;23.346;2022-12-18T02:29:59;95382.41;;;6.28;100.00
6680;BME280;3376;42.664;23.346;2022-12-18T02:32:29;95379.41;;;6.23;100.00
6680;BME280;3376;42.664;23.346;2022-12-18T02:34:58;95385.38;;;6.24;100.00
6680;BME280;3376;42.664;23.346;2022-12-18T02:37:26;95379.13;;;6.17;100.00
6680;BME280;3376;42.664;23.346;2022-12-18T02:39:56;95375.69;;;6.07;100.00
6680;BME280;3376;42.664;23.346;2022-12-18T02:42:24;95400.16;;;6.31;100.00
6680;BME280;3376;42.664;23.346;2022-12-18T02:44:52;95363.75;;;6.06;100.00
6680;BME280;3376;42.664;23.346;2022-12-18T02:47:22;95368.47;;;6.01;100.00
6680;BME280;3376;42.664;23.346;2022-12-18T02:49:59;95390.59;;;6.13;100.00
6680;BME280;3376;42.664;23.346;2022-12-18T02:52:33;95388.47;;;5.97;100.00
6680;BME280;3376;42.664;23.346;2022-12-18T02:55:12;95389.34;;;5.86;100.00
6680;BME280;3376;42.664;23.346;2022-12-18T02:57:46;95398.19;;;5.93;100.00
6680;BME280;3376;42.664;23.346;2022-12-18T03:00:20;95398.94;;;5.84;100.00
6680;BME280;3376;42.664;23.346;2022-12-18T03:02:51;95402.56;;;5.93;100.00
6680;BME280;3376;42.664;23.346;2022-12-18T03:05:25;95405.91;;;5.93;100.00
6680;BME280;3376;42.664;23.346;2022-12-18T03:07:58;95406.75;;;5.94;100.00
6680;BME280;3376;42.664;23.346;2022-12-18T03:10:31;95407.69;;;5.93;100.00
6680;BME280;3376;42.664;23.346;2022-12-18T03:13:02;95405.88;;;5.84;100.00
6680;BME280;3376;42.664;23.346;2022-12-18T03:15:34;95398.56;;;5.68;100.00
6680;BME280;3376;42.664;23.346;2022-12-18T03:18:05;95369.44;;;5.47;100.00
6680;BME280;3376;42.664;23.346;2022-12-18T03:20:35;95400.28;;;5.68;100.00
6680;BME280;3376;42.664;23.346;2022-12-18T03:23:07;95415.72;;;5.68;100.00
6680;BME280;3376;42.664;23.346;2022-12-18T03:25:38;95397.41;;;5.61;100.00
6680;BME280;3376;42.664;23.346;2022-12-18T03:28:08;95420.00;;;5.78;100.00
6680;BME280;3376;42.664;23.346;2022-12-18T03:30:40;95422.81;;;5.75;100.00
6680;BME280;3376;42.664;23.346;2022-12-18T03:33:11;95425.84;;;5.80;100.00
6680;BME280;3376;42.664;23.346;2022-12-18T03:35:43;95423.38;;;5.79;100.00
6680;BME280;3376;42.664;23.346;2022-12-18T03:38:11;95436.94;;;5.81;100.00
6680;BME280;3376;42.664;23.346;2022-12-18T03:40:44;95433.34;;;5.72;100.00
6680;BME280;3376;42.664;23.346;2022-12-18T03:43:19;95437.09;;;5.68;100.00
6680;BME280;3376;42.664;23.346;2022-12-18T03:45:52;95445.13;;;5.75;100.00
6680;BME280;3376;42.664;23.346;2022-12-18T03:48:26;95391.81;;;5.36;100.00
6680;BME280;3376;42.664;23.346;2022-12-18T03:50:57;95430.84;;;5.50;100.00
6680;BME280;3376;42.664;23.346;2022-12-18T03:53:31;95411.28;;;5.38;100.00
6680;BME280;3376;42.664;23.346;2022-12-18T03:56:00;95463.06;;;5.65;100.00
6680;BME280;3376;42.664;23.346;2022-12-18T03:58:29;95471.41;;;5.78;100.00
6680;BME280;3376;42.664;23.346;2022-12-18T04:01:02;95462.72;;;5.59;100.00
6680;BME280;3376;42.664;23.346;2022-12-18T04:03:31;95475.34;;;5.62;100.00
6680;BME280;3376;42.664;23.346;2022-12-18T04:05:59;95464.72;;;5.55;100.00
6680;BME280;3376;42.664;23.346;2022-12-18T04:08:27;95470.78;;;5.65;100.00
6680;BME280;3376;42.664;23.346;2022-12-18T04:10:55;95476.72;;;5.66;100.00
6680;BME280;3376;42.664;23.346;2022-12-18T04:13:22;95471.94;;;5.61;100.00
6680;BME280;3376;42.664;23.346;2022-12-18T04:15:49;95478.34;;;5.67;100.00
6680;BME280;3376;42.664;23.346;2022-12-18T04:18:18;95473.81;;;5.59;100.00
6680;BME280;3376;42.664;23.346;2022-12-18T04:20:45;95485.38;;;5.65;100.00
6680;BME280;3376;42.664;23.346;2022-12-18T04:23:12;95483.19;;;5.60;100.00
6680;BME280;3376;42.664;23.346;2022-12-18T04:25:39;95489.50;;;5.56;100.00
6680;BME280;3376;42.664;23.346;2022-12-18T04:28:05;95482.50;;;5.47;100.00
6680;BME280;3376;42.664;23.346;2022-12-18T04:30:32;95496.13;;;5.59;100.00
6680;BME280;3376;42.664;23.346;2022-12-18T04:32:59;95484.47;;;5.55;100.00
6680;BME280;3376;42.664;23.346;2022-12-18T04:35:27;95507.22;;;5.70;100.00
6680;BME280;3376;42.664;23.346;2022-12-18T04:37:54;95505.44;;;5.71;100.00
6680;BME280;3376;42.664;23.346;2022-12-18T04:40:21;95493.81;;;5.56;100.00
6680;BME280;3376;42.664;23.346;2022-12-18T04:42:47;95508.88;;;5.60;100.00
6680;BME280;3376;42.664;23.346;2022-12-18T04:45:14;95517.97;;;5.64;100.00
6680;BME280;3376;42.664;23.346;2022-12-18T04:47:41;95524.69;;;5.76;100.00
6680;BME280;3376;42.664;23.346;2022-12-18T04:50:08;95511.06;;;5.65;100.00
6680;BME280;3376;42.664;23.346;2022-12-18T04:52:36;95530.63;;;5.45;100.00
6680;BME280;3376;42.664;23.346;2022-12-18T04:55:03;95534.13;;;5.44;100.00
6680;BME280;3376;42.664;23.346;2022-12-18T04:57:30;95534.50;;;5.40;100.00
6680;BME280;3376;42.664;23.346;2022-12-18T04:59:56;95535.78;;;5.34;100.00
6680;BME280;3376;42.664;23.346;2022-12-18T05:02:23;95534.25;;;5.32;100.00
6680;BME280;3376;42.664;23.346;2022-12-18T05:04:50;95529.75;;;5.24;100.00
6680;BME280;3376;42.664;23.346;2022-12-18T05:07:16;95535.00;;;5.23;100.00
6680;BME280;3376;42.664;23.346;2022-12-18T05:09:45;95529.75;;;5.24;100.00
6680;BME280;3376;42.664;23.346;2022-12-18T05:12:11;95545.13;;;5.35;100.00
6680;BME280;3376;42.664;23.346;2022-12-18T05:14:38;95557.38;;;5.32;100.00
6680;BME280;3376;42.664;23.346;2022-12-18T05:17:05;95565.00;;;5.22;100.00
6680;BME280;3376;42.664;23.346;2022-12-18T05:19:31;95552.59;;;5.16;100.00
6680;BME280;3376;42.664;23.346;2022-12-18T05:21:58;95569.78;;;5.16;100.00
6680;BME280;3376;42.664;23.346;2022-12-18T05:24:25;95562.91;;;5.05;100.00
6680;BME280;3376;42.664;23.346;2022-12-18T05:26:53;95581.09;;;5.24;100.00
6680;BME280;3376;42.664;23.346;2022-12-18T05:29:20;95571.75;;;5.23;100.00
6680;BME280;3376;42.664;23.346;2022-12-18T05:31:47;95585.78;;;5.19;100.00
6680;BME280;3376;42.664;23.346;2022-12-18T05:34:14;95586.72;;;5.07;100.00
6680;BME280;3376;42.664;23.346;2022-12-18T05:36:40;95602.13;;;5.07;100.00
6680;BME280;3376;42.664;23.346;2022-12-18T05:39:07;95595.09;;;5.09;100.00
6680;BME280;3376;42.664;23.346;2022-12-18T05:41:34;95600.22;;;5.09;100.00
6680;BME280;3376;42.664;23.346;2022-12-18T05:44:02;95596.16;;;5.07;100.00
6680;BME280;3376;42.664;23.346;2022-12-18T05:46:29;95588.56;;;5.05;100.00
6680;BME280;3376;42.664;23.346;2022-12-18T05:48:59;95608.88;;;5.08;100.00
6680;BME280;3376;42.664;23.346;2022-12-18T05:51:26;95583.41;;;4.94;100.00
6680;BME280;3376;42.664;23.346;2022-12-18T05:53:52;95607.25;;;5.07;100.00
6680;BME280;3376;42.664;23.346;2022-12-18T05:56:21;95601.28;;;4.96;100.00
6680;BME280;3376;42.664;23.346;2022-12-18T05:58:51;95603.47;;;4.89;100.00
6680;BME280;3376;42.664;23.346;2022-12-18T06:01:22;95619.13;;;4.86;100.00
6680;BME280;3376;42.664;23.346;2022-12-18T06:03:49;95625.41;;;4.82;100.00
6680;BME280;3376;42.664;23.346;2022-12-18T06:06:17;95619.81;;;4.77;100.00
6680;BME280;3376;42.664;23.346;2022-12-18T06:08:44;95626.34;;;4.81;100.00
6680;BME280;3376;42.664;23.346;2022-12-18T06:11:11;95627.25;;;4.80;100.00
6680;BME280;3376;42.664;23.346;2022-12-18T06:13:38;95627.25;;;4.80;100.00
6680;BME280;3376;42.664;23.346;2022-12-18T06:16:05;95618.19;;;4.87;100.00
6680;BME280;3376;42.664;23.346;2022-12-18T06:18:37;95615.03;;;4.72;100.00
6680;BME280;3376;42.664;23.346;2022-12-18T06:21:04;95628.69;;;4.84;100.00
6680;BME280;3376;42.664;23.346;2022-12-18T06:23:30;95616.53;;;4.75;100.00
6680;BME280;3376;42.664;23.346;2022-12-18T06:25:57;95615.59;;;4.76;100.00
6680;BME280;3376;42.664;23.346;2022-12-18T06:28:24;95635.94;;;4.90;100.00
6680;BME280;3376;42.664;23.346;2022-12-18T06:30:51;95633.59;;;4.87;100.00
6680;BME280;3376;42.664;23.346;2022-12-18T06:33:18;95634.28;;;4.89;100.00
6680;BME280;3376;42.664;23.346;2022-12-18T06:35:46;95646.69;;;4.95;100.00
6680;BME280;3376;42.664;23.346;2022-12-18T06:38:13;95652.06;;;5.03;100.00
6680;BME280;3376;42.664;23.346;2022-12-18T06:40:40;95649.38;;;5.05;100.00
6680;BME280;3376;42.664;23.346;2022-12-18T06:43:07;95665.38;;;5.08;100.00
6680;BME280;3376;42.664;23.346;2022-12-18T06:45:34;95658.03;;;5.04;100.00
6680;BME280;3376;42.664;23.346;2022-12-18T06:48:00;95670.03;;;5.03;100.00
6680;BME280;3376;42.664;23.346;2022-12-18T06:50:27;95655.19;;;4.96;100.00
6680;BME280;3376;42.664;23.346;2022-12-18T06:52:55;95656.63;;;5.11;100.00
6680;BME280;3376;42.664;23.346;2022-12-18T06:55:22;95661.66;;;5.12;100.00
6680;BME280;3376;42.664;23.346;2022-12-18T06:57:49;95671.94;;;5.12;100.00
6680;BME280;3376;42.664;23.346;2022-12-18T07:00:16;95658.38;;;5.10;100.00
6680;BME280;3376;42.664;23.346;2022-12-18T07:02:43;95660.91;;;4.88;100.00
6680;BME280;3376;42.664;23.346;2022-12-18T07:05:10;95674.22;;;4.93;100.00
6680;BME280;3376;42.664;23.346;2022-12-18T07:07:37;95671.38;;;4.74;100.00
6680;BME280;3376;42.664;23.346;2022-12-18T07:10:05;95684.13;;;4.98;100.00
6680;BME280;3376;42.664;23.346;2022-12-18T07:12:32;95680.66;;;4.99;100.00
6680;BME280;3376;42.664;23.346;2022-12-18T07:14:59;95680.75;;;4.97;100.00
6680;BME280;3376;42.664;23.346;2022-12-18T07:17:25;95680.31;;;5.03;100.00
6680;BME280;3376;42.664;23.346;2022-12-18T07:19:52;95681.56;;;4.98;100.00
6680;BME280;3376;42.664;23.346;2022-12-18T07:22:19;95684.38;;;5.06;100.00
6680;BME280;3376;42.664;23.346;2022-12-18T07:24:45;95685.69;;;5.11;100.00
6680;BME280;3376;42.664;23.346;2022-12-18T07:27:14;95677.75;;;5.03;100.00
6680;BME280;3376;42.664;23.346;2022-12-18T07:29:40;95698.19;;;5.16;100.00
6680;BME280;3376;42.664;23.346;2022-12-18T07:32:07;95700.78;;;5.16;100.00
6680;BME280;3376;42.664;23.346;2022-12-18T07:34:34;95705.19;;;5.14;100.00
6680;BME280;3376;42.664;23.346;2022-12-18T07:37:01;95672.97;;;4.75;100.00
6680;BME280;3376;42.664;23.346;2022-12-18T07:39:28;95712.03;;;4.91;100.00
6680;BME280;3376;42.664;23.346;2022-12-18T07:41:54;95703.66;;;5.00;100.00
6680;BME280;3376;42.664;23.346;2022-12-18T07:44:40;95704.09;;;4.94;100.00
6680;BME280;3376;42.664;23.346;2022-12-18T07:47:07;95703.53;;;5.02;100.00
6680;BME280;3376;42.664;23.346;2022-12-18T07:49:33;95712.31;;;5.10;100.00
6680;BME280;3376;42.664;23.346;2022-12-18T07:52:00;95718.81;;;5.03;100.00
6680;BME280;3376;42.664;23.346;2022-12-18T07:54:27;95688.19;;;4.78;100.00
6680;BME280;3376;42.664;23.346;2022-12-18T07:56:53;95725.81;;;5.01;100.00
6680;BME280;3376;42.664;23.346;2022-12-18T07:59:20;95730.94;;;4.90;100.00
6680;BME280;3376;42.664;23.346;2022-12-18T08:01:48;95718.91;;;4.91;100.00
6680;BME280;3376;42.664;23.346;2022-12-18T08:04:15;95547.81;;;3.63;100.00
6680;BME280;3376;42.664;23.346;2022-12-18T08:06:42;95749.59;;;4.92;100.00
6680;BME280;3376;42.664;23.346;2022-12-18T08:09:09;95741.41;;;4.87;100.00
6680;BME280;3376;42.664;23.346;2022-12-18T08:11:36;95750.28;;;4.83;100.00
6680;BME280;3376;42.664;23.346;2022-12-18T08:14:03;95751.66;;;4.87;100.00
6680;BME280;3376;42.664;23.346;2022-12-18T08:16:30;95761.47;;;4.82;100.00
6680;BME280;3376;42.664;23.346;2022-12-18T08:18:58;95763.00;;;4.85;100.00
6680;BME280;3376;42.664;23.346;2022-12-18T08:21:27;95765.22;;;4.89;100.00
6680;BME280;3376;42.664;23.346;2022-12-18T08:23:56;95774.66;;;4.89;100.00
6680;BME280;3376;42.664;23.346;2022-12-18T08:26:24;95783.06;;;4.91;100.00
6680;BME280;3376;42.664;23.346;2022-12-18T08:28:53;95772.78;;;4.79;100.00
6680;BME280;3376;42.664;23.346;2022-12-18T08:31:20;95764.59;;;5.09;100.00
6680;BME280;3376;42.664;23.346;2022-12-18T08:33:48;95768.75;;;4.99;100.00
6680;BME280;3376;42.664;23.346;2022-12-18T08:36:17;95775.91;;;5.52;100.00
6680;BME280;3376;42.664;23.346;2022-12-18T08:38:44;95773.09;;;5.55;100.00
6680;BME280;3376;42.664;23.346;2022-12-18T08:41:13;95786.34;;;5.62;100.00
6680;BME280;3376;42.664;23.346;2022-12-18T08:43:40;95767.97;;;5.44;100.00
6680;BME280;3376;42.664;23.346;2022-12-18T08:46:26;95772.47;;;5.30;100.00
6680;BME280;3376;42.664;23.346;2022-12-18T08:48:54;95788.72;;;5.30;100.00
6680;BME280;3376;42.664;23.346;2022-12-18T08:51:23;95795.22;;;5.23;100.00
6680;BME280;3376;42.664;23.346;2022-12-18T08:53:50;95796.28;;;5.21;100.00
6680;BME280;3376;42.664;23.346;2022-12-18T08:56:17;95782.75;;;4.95;100.00
6680;BME280;3376;42.664;23.346;2022-12-18T08:58:44;95573.44;;;3.63;100.00
6680;BME280;3376;42.664;23.346;2022-12-18T09:01:12;95793.28;;;5.03;100.00
6680;BME280;3376;42.664;23.346;2022-12-18T09:03:39;95776.75;;;4.83;100.00
6680;BME280;3376;42.664;23.346;2022-12-18T09:06:06;95756.59;;;4.66;100.00
6680;BME280;3376;42.664;23.346;2022-12-18T09:08:34;95805.16;;;4.93;100.00
6680;BME280;3376;42.664;23.346;2022-12-18T09:11:01;95790.66;;;4.92;100.00
6680;BME280;3376;42.664;23.346;2022-12-18T09:13:28;95785.81;;;5.00;100.00
6680;BME280;3376;42.664;23.346;2022-12-18T09:15:55;95785.59;;;5.03;100.00
6680;BME280;3376;42.664;23.346;2022-12-18T09:18:23;95781.59;;;4.99;100.00
6680;BME280;3376;42.664;23.346;2022-12-18T09:20:50;95785.34;;;5.06;100.00
6680;BME280;3376;42.664;23.346;2022-12-18T09:23:18;95788.41;;;5.11;100.00
6680;BME280;3376;42.664;23.346;2022-12-18T09:25:46;95784.69;;;5.15;100.00
6680;BME280;3376;42.664;23.346;2022-12-18T09:28:14;95741.41;;;4.87;100.00
6680;BME280;3376;42.664;23.346;2022-12-18T09:30:43;95785.44;;;5.28;100.00
6680;BME280;3376;42.664;23.346;2022-12-18T09:33:10;95784.50;;;5.29;100.00
6680;BME280;3376;42.664;23.346;2022-12-18T09:35:41;95786.59;;;5.24;100.00
6680;BME280;3376;42.664;23.346;2022-12-18T09:38:11;95775.69;;;5.10;100.00
6680;BME280;3376;42.664;23.346;2022-12-18T09:40:42;95783.81;;;5.27;100.00
6680;BME280;3376;42.664;23.346;2022-12-18T09:43:16;95788.13;;;5.27;100.00
6680;BME280;3376;42.664;23.346;2022-12-18T09:45:46;95793.03;;;5.30;100.00
6680;BME280;3376;42.664;23.346;2022-12-18T09:48:19;95789.31;;;5.34;100.00
6680;BME280;3376;42.664;23.346;2022-12-18T09:50:48;95791.50;;;5.27;100.00
6680;BME280;3376;42.664;23.346;2022-12-18T09:53:19;95789.16;;;5.24;100.00
6680;BME280;3376;42.664;23.346;2022-12-18T09:55:48;95784.88;;;5.36;100.00
6680;BME280;3376;42.664;23.346;2022-12-18T09:58:19;95772.63;;;5.39;100.00
6680;BME280;3376;42.664;23.346;2022-12-18T10:00:48;95779.91;;;5.56;100.00
6680;BME280;3376;42.664;23.346;2022-12-18T10:03:17;95784.22;;;5.56;100.00
6680;BME280;3376;42.664;23.346;2022-12-18T10:05:51;95782.34;;;5.58;100.00
6680;BME280;3376;42.664;23.346;2022-12-18T10:08:25;95770.53;;;5.55;100.00
6680;BME280;3376;42.664;23.346;2022-12-18T10:10:59;95763.25;;;5.38;100.00
6680;BME280;3376;42.664;23.346;2022-12-18T10:13:33;95783.19;;;5.58;100.00
6680;BME280;3376;42.664;23.346;2022-12-18T10:16:11;95799.16;;;5.51;100.00
6680;BME280;3376;42.664;23.346;2022-12-18T10:19:01;95796.59;;;5.51;100.00
6680;BME280;3376;42.664;23.346;2022-12-18T10:21:39;95767.97;;;5.44;100.00
6680;BME280;3376;42.664;23.346;2022-12-18T10:24:16;95790.53;;;5.52;100.00
6680;BME280;3376;42.664;23.346;2022-12-18T10:26:44;95796.00;;;5.47;100.00
6680;BME280;3376;42.664;23.346;2022-12-18T10:29:15;95803.16;;;5.55;100.00
6680;BME280;3376;42.664;23.346;2022-12-18T10:31:42;95789.13;;;5.59;100.00
6680;BME280;3376;42.664;23.346;2022-12-18T10:34:09;95798.63;;;5.80;100.00
6680;BME280;3376;42.664;23.346;2022-12-18T10:36:36;95787.91;;;5.86;100.00
6680;BME280;3376;42.664;23.346;2022-12-18T10:39:15;95794.22;;;5.82;100.00
6680;BME280;3376;42.664;23.346;2022-12-18T10:41:42;95747.88;;;5.49;99.87
6680;BME280;3376;42.664;23.346;2022-12-18T10:44:18;95785.31;;;5.75;100.00
6680;BME280;3376;42.664;23.346;2022-12-18T10:46:46;95795.69;;;5.63;100.00
6680;BME280;3376;42.664;23.346;2022-12-18T10:49:22;95788.31;;;5.69;100.00
6680;BME280;3376;42.664;23.346;2022-12-18T10:51:49;95780.84;;;5.66;100.00
6680;BME280;3376;42.664;23.346;2022-12-18T10:54:20;95790.72;;;5.83;100.00
6680;BME280;3376;42.664;23.346;2022-12-18T10:56:47;95765.19;;;5.80;100.00
6680;BME280;3376;42.664;23.346;2022-12-18T10:59:17;95784.63;;;5.95;100.00
6680;BME280;3376;42.664;23.346;2022-12-18T11:01:49;95777.91;;;5.71;100.00
6680;BME280;3376;42.664;23.346;2022-12-18T11:04:19;95791.34;;;5.74;100.00
6680;BME280;3376;42.664;23.346;2022-12-18T11:06:55;95771.50;;;5.65;100.00
6680;BME280;3376;42.664;23.346;2022-12-18T11:09:23;95786.50;;;5.82;100.00
6680;BME280;3376;42.664;23.346;2022-12-18T11:11:51;95786.94;;;5.76;99.22
6680;BME280;3376;42.664;23.346;2022-12-18T11:14:22;95791.34;;;5.74;98.45
6680;BME280;3376;42.664;23.346;2022-12-18T11:16:51;95765.41;;;5.66;100.00
6680;BME280;3376;42.664;23.346;2022-12-18T11:19:31;95796.06;;;5.91;97.60
6680;BME280;3376;42.664;23.346;2022-12-18T11:22:00;95796.78;;;5.93;96.88
6680;BME280;3376;42.664;23.346;2022-12-18T11:24:30;95796.06;;;5.91;95.45
6680;BME280;3376;42.664;23.346;2022-12-18T11:26:59;95801.22;;;5.91;95.03
6680;BME280;3376;42.664;23.346;2022-12-18T11:29:32;95795.81;;;5.72;94.97
6680;BME280;3376;42.664;23.346;2022-12-18T11:32:22;95778.75;;;5.71;97.97
6680;BME280;3376;42.664;23.346;2022-12-18T11:34:55;95780.13;;;5.53;98.67
6680;BME280;3376;42.664;23.346;2022-12-18T11:37:24;95795.28;;;5.45;97.23
6680;BME280;3376;42.664;23.346;2022-12-18T11:39:56;95780.22;;;5.41;98.64
6680;BME280;3376;42.664;23.346;2022-12-18T11:42:27;95796.69;;;5.49;98.48
6680;BME280;3376;42.664;23.346;2022-12-18T11:45:02;95786.88;;;5.43;97.26
6680;BME280;3376;42.664;23.346;2022-12-18T11:47:38;95774.38;;;5.39;99.87
6680;BME280;3376;42.664;23.346;2022-12-18T11:50:13;95793.47;;;5.58;98.75
6680;BME280;3376;42.664;23.346;2022-12-18T11:52:41;95792.06;;;5.65;98.95
6680;BME280;3376;42.664;23.346;2022-12-18T11:55:11;95808.66;;;5.61;96.39
6680;BME280;3376;42.664;23.346;2022-12-18T11:57:46;95775.19;;;5.50;97.76
6680;BME280;3376;42.664;23.346;2022-12-18T12:00:19;95789.97;;;5.81;97.34
6680;BME280;3376;42.664;23.346;2022-12-18T12:03:09;95771.28;;;5.68;94.58
6680;BME280;3376;42.664;23.346;2022-12-18T12:05:49;95784.41;;;5.87;95.81
6680;BME280;3376;42.664;23.346;2022-12-18T12:08:28;95807.66;;;5.97;95.88
6680;BME280;3376;42.664;23.346;2022-12-18T12:11:06;95797.25;;;5.98;95.22
6680;BME280;3376;42.664;23.346;2022-12-18T12:13:43;95799.03;;;5.98;96.66
6680;BME280;3376;42.664;23.346;2022-12-18T12:16:18;95794.34;;;6.03;95.78
6680;BME280;3376;42.664;23.346;2022-12-18T12:19:05;95788.13;;;6.06;96.90
6680;BME280;3376;42.664;23.346;2022-12-18T12:21:40;95798.19;;;6.09;96.79
6680;BME280;3376;42.664;23.346;2022-12-18T12:24:20;95794.47;;;6.02;97.90
6680;BME280;3376;42.664;23.346;2022-12-18T12:26:57;95787.44;;;6.04;96.54
6680;BME280;3376;42.664;23.346;2022-12-18T12:29:35;95789.56;;;6.10;96.58
6680;BME280;3376;42.664;23.346;2022-12-18T12:32:17;95788.75;;;5.98;95.11
6680;BME280;3376;42.664;23.346;2022-12-18T12:34:58;95802.41;;;5.98;95.30
6680;BME280;3376;42.664;23.346;2022-12-18T12:37:37;95798.31;;;5.96;96.86
6680;BME280;3376;42.664;23.346;2022-12-18T12:40:06;95803.81;;;6.03;96.01
6680;BME280;3376;42.664;23.346;2022-12-18T12:42:39;95785.56;;;5.83;97.90
6680;BME280;3376;42.664;23.346;2022-12-18T12:45:44;95797.38;;;6.08;96.67
6680;BME280;3376;42.664;23.346;2022-12-18T12:48:19;95808.03;;;5.92;96.17
6680;BME280;3376;42.664;23.346;2022-12-18T12:50:47;95794.56;;;6.00;99.57
6680;BME280;3376;42.664;23.346;2022-12-18T12:53:23;95798.78;;;5.90;97.36
6680;BME280;3376;42.664;23.346;2022-12-18T12:55:52;95800.03;;;5.84;99.38
6680;BME280;3376;42.664;23.346;2022-12-18T12:58:26;95799.78;;;5.76;98.76
6680;BME280;3376;42.664;23.346;2022-12-18T13:01:04;95817.13;;;5.85;99.21
6680;BME280;3376;42.664;23.346;2022-12-18T13:03:42;95816.44;;;5.94;99.98
6680;BME280;3376;42.664;23.346;2022-12-18T13:06:18;95815.97;;;6.01;99.70
6680;BME280;3376;42.664;23.346;2022-12-18T13:08:54;95821.59;;;6.17;98.05
6680;BME280;3376;42.664;23.346;2022-12-18T13:11:30;95830.00;;;6.08;96.81
6680;BME280;3376;42.664;23.346;2022-12-18T13:14:21;95836.69;;;6.10;96.46
6680;BME280;3376;42.664;23.346;2022-12-18T13:16:49;95843.44;;;6.11;97.81
6680;BME280;3376;42.664;23.346;2022-12-18T13:19:23;95834.13;;;6.10;96.57
6680;BME280;3376;42.664;23.346;2022-12-18T13:21:54;95830.00;;;6.08;95.09
6680;BME280;3376;42.664;23.346;2022-12-18T13:24:25;95842.03;;;6.07;95.76
6680;BME280;3376;42.664;23.346;2022-12-18T13:26:52;95840.06;;;6.00;97.88